Terminal Aerodrome Forecast
Issued by NWS Quad Cities IA IL

Home | Current Version | Previous Version | Text Only | Print | Product List | Glossary On
Versions: 1 2 3 4 5 6 7 8 9 10 11 12 13 14 15 16 17 18 19 20 21 22 23 24 25 26
953
FTUS43 KDVN 052343
TAFDBQ
TAF
KDBQ 052343Z 0600/0624 24005KT P6SM OVC090
     FM060300 17005KT 6SM BR OVC050
     FM061100 22005KT 5SM BR BKN015
     FM061800 23011KT 6SM BR SCT020 BKN150=

USA.gov is the U.S. government's official web portal to all federal, state and local government web resources and services.